Ashburn Park, Illinois
Current Conditions -  °F | °C
As of 2:53 PM on Thursday 23 Oct 2014 (Local Time) from KMDW Reporting Station
Broken Clouds Broken Clouds  
Wind Chill: 61°   Ceiling: 19000
Heat Index: 61°   Visibility: 10mi
Dew Point: 41°   Wind: 13mph
Humidity: 48%   Direction: 210°SSW
Pressure: 30.12"   Gusts: NA
Location:  41.7473°N, 87.7132°W
Report Text: KMDW 231953Z 21011KT 10SM BKN190 16/05 A3012 RMK AO2 SLP199 T01610050
Loading
Personal Weather Stations






























Interactive Weather Map New forecast layout! Learn more

10-Day Weather Forecast

Advertisements
Track Severe Weather on mobile